sensor_id;sensor_type;location;lat;lon;timestamp;temperature;humidity
8643;DHT22;4359;49.358;11.256;2024-01-11T00:00:24;-9.40;99.90
8643;DHT22;4359;49.358;11.256;2024-01-11T00:02:49;-9.30;99.90
8643;DHT22;4359;49.358;11.256;2024-01-11T00:05:15;-9.30;99.90
8643;DHT22;4359;49.358;11.256;2024-01-11T00:07:42;-9.30;99.90
8643;DHT22;4359;49.358;11.256;2024-01-11T00:10:07;-9.30;99.90
8643;DHT22;4359;49.358;11.256;2024-01-11T00:12:33;-9.40;99.90
8643;DHT22;4359;49.358;11.256;2024-01-11T00:14:58;-9.40;99.90
8643;DHT22;4359;49.358;11.256;2024-01-11T00:17:24;-9.50;99.90
8643;DHT22;4359;49.358;11.256;2024-01-11T00:19:50;-9.50;99.90
8643;DHT22;4359;49.358;11.256;2024-01-11T00:22:16;-9.50;99.90
8643;DHT22;4359;49.358;11.256;2024-01-11T00:24:41;-9.50;99.90
8643;DHT22;4359;49.358;11.256;2024-01-11T00:27:07;-9.60;99.90
8643;DHT22;4359;49.358;11.256;2024-01-11T00:29:33;-9.60;99.90
8643;DHT22;4359;49.358;11.256;2024-01-11T00:31:59;-9.60;99.90
8643;DHT22;4359;49.358;11.256;2024-01-11T00:34:24;-9.60;99.90
8643;DHT22;4359;49.358;11.256;2024-01-11T00:36:50;-9.60;99.90
8643;DHT22;4359;49.358;11.256;2024-01-11T00:39:15;-9.60;99.90
8643;DHT22;4359;49.358;11.256;2024-01-11T00:41:41;-9.70;99.90
8643;DHT22;4359;49.358;11.256;2024-01-11T00:44:06;-9.70;99.90
8643;DHT22;4359;49.358;11.256;2024-01-11T00:46:33;-9.70;99.90
8643;DHT22;4359;49.358;11.256;2024-01-11T00:48:58;-9.80;99.90
8643;DHT22;4359;49.358;11.256;2024-01-11T00:51:24;-9.80;99.90
8643;DHT22;4359;49.358;11.256;2024-01-11T00:53:49;-9.70;99.90
8643;DHT22;4359;49.358;11.256;2024-01-11T00:56:18;-9.70;99.90
8643;DHT22;4359;49.358;11.256;2024-01-11T00:58:44;-9.70;99.90
8643;DHT22;4359;49.358;11.256;2024-01-11T01:01:10;-9.60;99.90
8643;DHT22;4359;49.358;11.256;2024-01-11T01:03:35;-9.60;99.90
8643;DHT22;4359;49.358;11.256;2024-01-11T01:06:01;-9.70;99.90
8643;DHT22;4359;49.358;11.256;2024-01-11T01:08:27;-9.70;99.90
8643;DHT22;4359;49.358;11.256;2024-01-11T01:10:53;-9.70;99.90
8643;DHT22;4359;49.358;11.256;2024-01-11T01:13:19;-9.70;99.90
8643;DHT22;4359;49.358;11.256;2024-01-11T01:15:44;-9.70;99.90
8643;DHT22;4359;49.358;11.256;2024-01-11T01:18:10;-9.70;99.90
8643;DHT22;4359;49.358;11.256;2024-01-11T01:20:35;-9.70;99.90
8643;DHT22;4359;49.358;11.256;2024-01-11T01:23:01;-9.70;99.90
8643;DHT22;4359;49.358;11.256;2024-01-11T01:25:26;-9.80;99.90
8643;DHT22;4359;49.358;11.256;2024-01-11T01:27:52;-9.90;99.90
8643;DHT22;4359;49.358;11.256;2024-01-11T01:30:17;-9.90;99.90
8643;DHT22;4359;49.358;11.256;2024-01-11T01:32:43;-9.90;99.90
8643;DHT22;4359;49.358;11.256;2024-01-11T01:35:08;-9.90;99.90
8643;DHT22;4359;49.358;11.256;2024-01-11T01:37:34;-9.90;99.90
8643;DHT22;4359;49.358;11.256;2024-01-11T01:39:59;-9.90;99.90
8643;DHT22;4359;49.358;11.256;2024-01-11T01:42:25;-9.90;99.90
8643;DHT22;4359;49.358;11.256;2024-01-11T01:44:50;-9.90;99.90
8643;DHT22;4359;49.358;11.256;2024-01-11T01:47:16;-9.90;99.90
8643;DHT22;4359;49.358;11.256;2024-01-11T01:49:42;-9.90;99.90
8643;DHT22;4359;49.358;11.256;2024-01-11T01:52:08;-9.90;99.90
8643;DHT22;4359;49.358;11.256;2024-01-11T01:54:33;-10.00;99.90
8643;DHT22;4359;49.358;11.256;2024-01-11T01:56:59;-10.00;99.90
8643;DHT22;4359;49.358;11.256;2024-01-11T01:59:25;-10.00;99.90
8643;DHT22;4359;49.358;11.256;2024-01-11T02:01:51;-10.00;99.90
8643;DHT22;4359;49.358;11.256;2024-01-11T02:04:17;-10.10;99.90
8643;DHT22;4359;49.358;11.256;2024-01-11T02:06:44;-10.20;99.90
8643;DHT22;4359;49.358;11.256;2024-01-11T02:09:09;-10.20;99.90
8643;DHT22;4359;49.358;11.256;2024-01-11T02:11:36;-10.20;99.90
8643;DHT22;4359;49.358;11.256;2024-01-11T02:14:02;-10.20;99.90
8643;DHT22;4359;49.358;11.256;2024-01-11T02:16:28;-10.10;99.90
8643;DHT22;4359;49.358;11.256;2024-01-11T02:18:54;-10.20;99.90
8643;DHT22;4359;49.358;11.256;2024-01-11T02:21:19;-10.20;99.90
8643;DHT22;4359;49.358;11.256;2024-01-11T02:24:04;-10.20;99.90
8643;DHT22;4359;49.358;11.256;2024-01-11T02:26:29;-10.30;99.90
8643;DHT22;4359;49.358;11.256;2024-01-11T02:28:55;-10.30;99.90
8643;DHT22;4359;49.358;11.256;2024-01-11T02:31:20;-10.30;99.90
8643;DHT22;4359;49.358;11.256;2024-01-11T02:33:46;-10.40;99.90
8643;DHT22;4359;49.358;11.256;2024-01-11T02:36:12;-10.40;99.90
8643;DHT22;4359;49.358;11.256;2024-01-11T02:38:38;-10.30;99.90
8643;DHT22;4359;49.358;11.256;2024-01-11T02:41:04;-10.40;99.90
8643;DHT22;4359;49.358;11.256;2024-01-11T02:43:30;-10.40;99.90
8643;DHT22;4359;49.358;11.256;2024-01-11T02:45:56;-10.50;99.90
8643;DHT22;4359;49.358;11.256;2024-01-11T02:48:21;-10.50;99.90
8643;DHT22;4359;49.358;11.256;2024-01-11T02:50:48;-10.50;99.90
8643;DHT22;4359;49.358;11.256;2024-01-11T02:53:13;-10.50;99.90
8643;DHT22;4359;49.358;11.256;2024-01-11T02:55:39;-10.50;99.90
8643;DHT22;4359;49.358;11.256;2024-01-11T02:58:04;-10.50;99.90
8643;DHT22;4359;49.358;11.256;2024-01-11T03:00:30;-10.50;99.90
8643;DHT22;4359;49.358;11.256;2024-01-11T03:02:55;-10.40;99.90
8643;DHT22;4359;49.358;11.256;2024-01-11T03:05:21;-10.40;99.90
8643;DHT22;4359;49.358;11.256;2024-01-11T03:07:46;-10.40;99.90
8643;DHT22;4359;49.358;11.256;2024-01-11T03:10:12;-10.40;99.90
8643;DHT22;4359;49.358;11.256;2024-01-11T03:12:39;-10.30;99.90
8643;DHT22;4359;49.358;11.256;2024-01-11T03:15:04;-10.30;99.90
8643;DHT22;4359;49.358;11.256;2024-01-11T03:17:30;-10.40;99.90
8643;DHT22;4359;49.358;11.256;2024-01-11T03:19:55;-10.40;99.90
8643;DHT22;4359;49.358;11.256;2024-01-11T03:22:21;-10.40;99.90
8643;DHT22;4359;49.358;11.256;2024-01-11T03:24:46;-10.40;99.90
8643;DHT22;4359;49.358;11.256;2024-01-11T03:27:12;-10.50;99.90
8643;DHT22;4359;49.358;11.256;2024-01-11T03:29:37;-10.50;99.90
8643;DHT22;4359;49.358;11.256;2024-01-11T03:32:03;-10.50;99.90
8643;DHT22;4359;49.358;11.256;2024-01-11T03:34:29;-10.50;99.90
8643;DHT22;4359;49.358;11.256;2024-01-11T03:36:54;-10.50;99.90
8643;DHT22;4359;49.358;11.256;2024-01-11T03:39:20;-10.50;99.90
8643;DHT22;4359;49.358;11.256;2024-01-11T03:41:45;-10.50;99.90
8643;DHT22;4359;49.358;11.256;2024-01-11T03:44:11;-10.50;99.90
8643;DHT22;4359;49.358;11.256;2024-01-11T03:46:37;-10.60;99.90
8643;DHT22;4359;49.358;11.256;2024-01-11T03:49:02;-10.60;99.90
8643;DHT22;4359;49.358;11.256;2024-01-11T03:51:28;-10.70;99.90
8643;DHT22;4359;49.358;11.256;2024-01-11T03:53:53;-10.70;99.90
8643;DHT22;4359;49.358;11.256;2024-01-11T03:56:19;-10.70;99.90
8643;DHT22;4359;49.358;11.256;2024-01-11T03:58:45;-10.60;99.90
8643;DHT22;4359;49.358;11.256;2024-01-11T04:01:10;-10.60;99.90
8643;DHT22;4359;49.358;11.256;2024-01-11T04:03:36;-10.70;99.90
8643;DHT22;4359;49.358;11.256;2024-01-11T04:06:02;-10.70;99.90
8643;DHT22;4359;49.358;11.256;2024-01-11T04:08:28;-10.70;99.90
8643;DHT22;4359;49.358;11.256;2024-01-11T04:10:53;-10.70;99.90
8643;DHT22;4359;49.358;11.256;2024-01-11T04:13:19;-10.80;99.90
8643;DHT22;4359;49.358;11.256;2024-01-11T04:15:44;-10.80;99.90
8643;DHT22;4359;49.358;11.256;2024-01-11T04:18:10;-10.80;99.90
8643;DHT22;4359;49.358;11.256;2024-01-11T04:20:35;-10.80;99.90
8643;DHT22;4359;49.358;11.256;2024-01-11T04:23:01;-10.80;99.90
8643;DHT22;4359;49.358;11.256;2024-01-11T04:25:26;-10.80;99.90
8643;DHT22;4359;49.358;11.256;2024-01-11T04:27:52;-10.80;99.90
8643;DHT22;4359;49.358;11.256;2024-01-11T04:30:18;-10.80;99.90
8643;DHT22;4359;49.358;11.256;2024-01-11T04:32:43;-10.90;99.90
8643;DHT22;4359;49.358;11.256;2024-01-11T04:35:09;-10.80;99.90
8643;DHT22;4359;49.358;11.256;2024-01-11T04:37:35;-10.80;99.90
8643;DHT22;4359;49.358;11.256;2024-01-11T04:40:01;-10.80;99.90
8643;DHT22;4359;49.358;11.256;2024-01-11T04:42:27;-10.90;99.90
8643;DHT22;4359;49.358;11.256;2024-01-11T04:44:52;-10.90;99.90
8643;DHT22;4359;49.358;11.256;2024-01-11T04:47:18;-10.90;99.90
8643;DHT22;4359;49.358;11.256;2024-01-11T04:49:43;-11.00;99.90
8643;DHT22;4359;49.358;11.256;2024-01-11T04:52:09;-11.00;99.90
8643;DHT22;4359;49.358;11.256;2024-01-11T04:54:34;-10.90;99.90
8643;DHT22;4359;49.358;11.256;2024-01-11T04:57:00;-10.90;99.90
8643;DHT22;4359;49.358;11.256;2024-01-11T04:59:25;-10.90;99.90
8643;DHT22;4359;49.358;11.256;2024-01-11T05:01:51;-10.80;99.90
8643;DHT22;4359;49.358;11.256;2024-01-11T05:04:16;-10.80;99.90
8643;DHT22;4359;49.358;11.256;2024-01-11T05:06:42;-10.90;99.90
8643;DHT22;4359;49.358;11.256;2024-01-11T05:09:07;-10.90;99.90
8643;DHT22;4359;49.358;11.256;2024-01-11T05:11:33;-11.00;99.90
8643;DHT22;4359;49.358;11.256;2024-01-11T05:13:58;-11.00;99.90
8643;DHT22;4359;49.358;11.256;2024-01-11T05:16:25;-11.10;99.90
8643;DHT22;4359;49.358;11.256;2024-01-11T05:18:51;-11.10;99.90
8643;DHT22;4359;49.358;11.256;2024-01-11T05:21:17;-11.10;99.90
8643;DHT22;4359;49.358;11.256;2024-01-11T05:23:42;-11.10;99.90
8643;DHT22;4359;49.358;11.256;2024-01-11T05:26:08;-11.10;99.90
8643;DHT22;4359;49.358;11.256;2024-01-11T05:28:34;-11.10;99.90
8643;DHT22;4359;49.358;11.256;2024-01-11T05:30:59;-11.10;99.90
8643;DHT22;4359;49.358;11.256;2024-01-11T05:33:25;-11.00;99.90
8643;DHT22;4359;49.358;11.256;2024-01-11T05:35:51;-10.90;99.90
8643;DHT22;4359;49.358;11.256;2024-01-11T05:38:17;-10.90;99.90
8643;DHT22;4359;49.358;11.256;2024-01-11T05:40:42;-11.00;99.90
8643;DHT22;4359;49.358;11.256;2024-01-11T05:43:08;-11.00;99.90
8643;DHT22;4359;49.358;11.256;2024-01-11T05:45:33;-11.00;99.90
8643;DHT22;4359;49.358;11.256;2024-01-11T05:47:59;-11.10;99.90
8643;DHT22;4359;49.358;11.256;2024-01-11T05:50:25;-11.10;99.90
8643;DHT22;4359;49.358;11.256;2024-01-11T05:52:51;-11.10;99.90
8643;DHT22;4359;49.358;11.256;2024-01-11T05:55:17;-11.10;99.90
8643;DHT22;4359;49.358;11.256;2024-01-11T05:57:43;-11.10;99.90
8643;DHT22;4359;49.358;11.256;2024-01-11T06:00:08;-11.10;99.90
8643;DHT22;4359;49.358;11.256;2024-01-11T06:02:35;-11.10;99.90
8643;DHT22;4359;49.358;11.256;2024-01-11T06:05:01;-11.20;99.90
8643;DHT22;4359;49.358;11.256;2024-01-11T06:07:26;-11.10;99.90
8643;DHT22;4359;49.358;11.256;2024-01-11T06:09:52;-11.20;99.90
8643;DHT22;4359;49.358;11.256;2024-01-11T06:12:18;-11.30;99.90
8643;DHT22;4359;49.358;11.256;2024-01-11T06:14:43;-11.30;99.90
8643;DHT22;4359;49.358;11.256;2024-01-11T06:17:09;-11.20;99.90
8643;DHT22;4359;49.358;11.256;2024-01-11T06:19:36;-11.20;99.90
8643;DHT22;4359;49.358;11.256;2024-01-11T06:22:02;-11.20;99.90
8643;DHT22;4359;49.358;11.256;2024-01-11T06:24:28;-11.30;99.90
8643;DHT22;4359;49.358;11.256;2024-01-11T06:26:54;-11.30;99.90
8643;DHT22;4359;49.358;11.256;2024-01-11T06:29:19;-11.30;99.90
8643;DHT22;4359;49.358;11.256;2024-01-11T06:31:45;-11.30;99.90
8643;DHT22;4359;49.358;11.256;2024-01-11T06:34:10;-11.40;99.90
8643;DHT22;4359;49.358;11.256;2024-01-11T06:36:36;-11.40;99.90
8643;DHT22;4359;49.358;11.256;2024-01-11T06:39:01;-11.30;99.90
8643;DHT22;4359;49.358;11.256;2024-01-11T06:41:27;-11.30;99.90
8643;DHT22;4359;49.358;11.256;2024-01-11T06:43:52;-11.30;99.90
8643;DHT22;4359;49.358;11.256;2024-01-11T06:46:21;-11.20;99.90
8643;DHT22;4359;49.358;11.256;2024-01-11T06:48:49;-11.20;99.90
8643;DHT22;4359;49.358;11.256;2024-01-11T06:51:15;-11.10;99.90
8643;DHT22;4359;49.358;11.256;2024-01-11T06:53:41;-11.20;99.90
8643;DHT22;4359;49.358;11.256;2024-01-11T06:56:17;-11.20;99.90
8643;DHT22;4359;49.358;11.256;2024-01-11T06:58:43;-11.20;99.90
8643;DHT22;4359;49.358;11.256;2024-01-11T07:01:09;-11.30;99.90
8643;DHT22;4359;49.358;11.256;2024-01-11T07:03:34;-11.30;99.90
8643;DHT22;4359;49.358;11.256;2024-01-11T07:06:00;-11.30;99.90
8643;DHT22;4359;49.358;11.256;2024-01-11T07:08:25;-11.30;99.90
8643;DHT22;4359;49.358;11.256;2024-01-11T07:10:51;-11.20;99.90
8643;DHT22;4359;49.358;11.256;2024-01-11T07:13:16;-11.20;99.90
8643;DHT22;4359;49.358;11.256;2024-01-11T07:15:42;-11.20;99.90
8643;DHT22;4359;49.358;11.256;2024-01-11T07:18:09;-11.20;99.90
8643;DHT22;4359;49.358;11.256;2024-01-11T07:20:34;-11.20;99.90
8643;DHT22;4359;49.358;11.256;2024-01-11T07:23:00;-11.20;99.90
8643;DHT22;4359;49.358;11.256;2024-01-11T07:25:25;-11.10;99.90
8643;DHT22;4359;49.358;11.256;2024-01-11T07:27:51;-11.10;99.90
8643;DHT22;4359;49.358;11.256;2024-01-11T07:30:17;-11.10;99.90
8643;DHT22;4359;49.358;11.256;2024-01-11T07:32:43;-11.00;99.90
8643;DHT22;4359;49.358;11.256;2024-01-11T07:35:09;-11.00;99.90
8643;DHT22;4359;49.358;11.256;2024-01-11T07:37:39;-10.90;99.90
8643;DHT22;4359;49.358;11.256;2024-01-11T07:40:07;-10.90;99.90
8643;DHT22;4359;49.358;11.256;2024-01-11T07:42:37;-10.80;99.90
8643;DHT22;4359;49.358;11.256;2024-01-11T07:45:02;-10.80;99.90
8643;DHT22;4359;49.358;11.256;2024-01-11T07:47:28;-10.70;99.90
8643;DHT22;4359;49.358;11.256;2024-01-11T07:49:54;-10.60;99.90
8643;DHT22;4359;49.358;11.256;2024-01-11T07:52:20;-10.50;99.90
8643;DHT22;4359;49.358;11.256;2024-01-11T07:54:46;-10.40;99.90
8643;DHT22;4359;49.358;11.256;2024-01-11T07:57:12;-10.30;99.90
8643;DHT22;4359;49.358;11.256;2024-01-11T07:59:37;-10.10;99.90
8643;DHT22;4359;49.358;11.256;2024-01-11T08:02:03;-9.90;99.90
8643;DHT22;4359;49.358;11.256;2024-01-11T08:04:29;-9.70;99.90
8643;DHT22;4359;49.358;11.256;2024-01-11T08:06:54;-9.40;99.90
8643;DHT22;4359;49.358;11.256;2024-01-11T08:09:20;-9.10;99.90
8643;DHT22;4359;49.358;11.256;2024-01-11T08:11:45;-8.80;99.90
8643;DHT22;4359;49.358;11.256;2024-01-11T08:14:11;-8.70;99.90
8643;DHT22;4359;49.358;11.256;2024-01-11T08:16:37;-8.90;99.90
8643;DHT22;4359;49.358;11.256;2024-01-11T08:19:03;-8.90;99.90
8643;DHT22;4359;49.358;11.256;2024-01-11T08:21:28;-8.50;99.90
8643;DHT22;4359;49.358;11.256;2024-01-11T08:23:54;-8.30;99.90
8643;DHT22;4359;49.358;11.256;2024-01-11T08:26:20;-7.90;99.90
8643;DHT22;4359;49.358;11.256;2024-01-11T08:28:47;-7.40;99.90
8643;DHT22;4359;49.358;11.256;2024-01-11T08:31:13;-7.10;99.90
8643;DHT22;4359;49.358;11.256;2024-01-11T08:33:38;-6.90;99.90
8643;DHT22;4359;49.358;11.256;2024-01-11T08:36:07;-6.60;99.90
8643;DHT22;4359;49.358;11.256;2024-01-11T08:38:32;-6.20;99.90
8643;DHT22;4359;49.358;11.256;2024-01-11T08:40:58;-5.90;99.90
8643;DHT22;4359;49.358;11.256;2024-01-11T08:43:27;-5.60;99.90
8643;DHT22;4359;49.358;11.256;2024-01-11T08:45:52;-5.60;99.90
8643;DHT22;4359;49.358;11.256;2024-01-11T08:48:18;-5.90;99.90
8643;DHT22;4359;49.358;11.256;2024-01-11T08:50:43;-5.60;99.90
8643;DHT22;4359;49.358;11.256;2024-01-11T08:53:09;-5.40;99.90
8643;DHT22;4359;49.358;11.256;2024-01-11T08:55:34;-5.30;99.90
8643;DHT22;4359;49.358;11.256;2024-01-11T08:58:00;-5.60;99.90
8643;DHT22;4359;49.358;11.256;2024-01-11T09:00:26;-5.60;99.90
8643;DHT22;4359;49.358;11.256;2024-01-11T09:02:51;-5.70;99.90
8643;DHT22;4359;49.358;11.256;2024-01-11T09:05:17;-5.70;99.90
8643;DHT22;4359;49.358;11.256;2024-01-11T09:07:42;-5.80;99.90
8643;DHT22;4359;49.358;11.256;2024-01-11T09:10:08;-5.90;99.90
8643;DHT22;4359;49.358;11.256;2024-01-11T09:12:34;-6.10;99.90
8643;DHT22;4359;49.358;11.256;2024-01-11T09:15:00;-6.20;99.90
8643;DHT22;4359;49.358;11.256;2024-01-11T09:17:25;-6.20;99.90
8643;DHT22;4359;49.358;11.256;2024-01-11T09:19:51;-6.20;99.90
8643;DHT22;4359;49.358;11.256;2024-01-11T09:22:17;-6.40;99.90
8643;DHT22;4359;49.358;11.256;2024-01-11T09:24:42;-6.50;99.90
8643;DHT22;4359;49.358;11.256;2024-01-11T09:27:08;-6.50;99.90
8643;DHT22;4359;49.358;11.256;2024-01-11T09:29:33;-6.40;99.90
8643;DHT22;4359;49.358;11.256;2024-01-11T09:31:59;-6.20;99.90
8643;DHT22;4359;49.358;11.256;2024-01-11T09:34:25;-6.00;99.90
8643;DHT22;4359;49.358;11.256;2024-01-11T09:36:50;-5.90;99.90
8643;DHT22;4359;49.358;11.256;2024-01-11T09:39:17;-5.70;99.90
8643;DHT22;4359;49.358;11.256;2024-01-11T09:41:43;-5.60;99.90
8643;DHT22;4359;49.358;11.256;2024-01-11T09:44:14;-5.50;99.90
8643;DHT22;4359;49.358;11.256;2024-01-11T09:46:40;-5.40;99.90
8643;DHT22;4359;49.358;11.256;2024-01-11T09:49:06;-5.30;99.90
8643;DHT22;4359;49.358;11.256;2024-01-11T09:51:34;-5.30;99.90
8643;DHT22;4359;49.358;11.256;2024-01-11T09:54:01;-5.20;99.90
8643;DHT22;4359;49.358;11.256;2024-01-11T09:56:26;-4.90;99.90
8643;DHT22;4359;49.358;11.256;2024-01-11T09:58:53;-4.80;99.90
8643;DHT22;4359;49.358;11.256;2024-01-11T10:01:19;-4.70;99.90
8643;DHT22;4359;49.358;11.256;2024-01-11T10:03:44;-4.50;99.90
8643;DHT22;4359;49.358;11.256;2024-01-11T10:06:11;-4.40;99.90
8643;DHT22;4359;49.358;11.256;2024-01-11T10:08:37;-4.20;99.90
8643;DHT22;4359;49.358;11.256;2024-01-11T10:11:03;-4.10;99.90
8643;DHT22;4359;49.358;11.256;2024-01-11T10:13:29;-3.90;99.90
8643;DHT22;4359;49.358;11.256;2024-01-11T10:16:08;-3.80;99.90
8643;DHT22;4359;49.358;11.256;2024-01-11T10:18:35;-3.80;99.90
8643;DHT22;4359;49.358;11.256;2024-01-11T10:21:01;-3.80;99.90
8643;DHT22;4359;49.358;11.256;2024-01-11T10:23:26;-3.90;99.90
8643;DHT22;4359;49.358;11.256;2024-01-11T10:25:55;-3.90;99.90
8643;DHT22;4359;49.358;11.256;2024-01-11T10:28:21;-3.80;99.90
8643;DHT22;4359;49.358;11.256;2024-01-11T10:30:47;-3.70;99.90
8643;DHT22;4359;49.358;11.256;2024-01-11T10:33:12;-3.60;99.90
8643;DHT22;4359;49.358;11.256;2024-01-11T10:35:38;-3.50;99.90
8643;DHT22;4359;49.358;11.256;2024-01-11T10:38:05;-3.40;99.90
8643;DHT22;4359;49.358;11.256;2024-01-11T10:40:34;-3.30;99.90
8643;DHT22;4359;49.358;11.256;2024-01-11T10:43:01;-3.20;99.90
8643;DHT22;4359;49.358;11.256;2024-01-11T10:45:28;-3.20;99.90
8643;DHT22;4359;49.358;11.256;2024-01-11T10:47:54;-3.10;99.90
8643;DHT22;4359;49.358;11.256;2024-01-11T10:50:22;-3.00;99.90
8643;DHT22;4359;49.358;11.256;2024-01-11T10:53:02;-3.00;99.90
8643;DHT22;4359;49.358;11.256;2024-01-11T10:55:30;-2.90;99.90
8643;DHT22;4359;49.358;11.256;2024-01-11T10:57:55;-2.80;99.90
8643;DHT22;4359;49.358;11.256;2024-01-11T11:00:23;-2.70;99.90
8643;DHT22;4359;49.358;11.256;2024-01-11T11:02:49;-2.70;99.90
8643;DHT22;4359;49.358;11.256;2024-01-11T11:05:16;-2.60;99.90
8643;DHT22;4359;49.358;11.256;2024-01-11T11:07:43;-2.50;99.90
8643;DHT22;4359;49.358;11.256;2024-01-11T11:10:09;-2.40;99.90
8643;DHT22;4359;49.358;11.256;2024-01-11T11:12:35;-2.30;99.90
8643;DHT22;4359;49.358;11.256;2024-01-11T11:15:01;-2.40;99.90
8643;DHT22;4359;49.358;11.256;2024-01-11T11:17:28;-2.20;99.90
8643;DHT22;4359;49.358;11.256;2024-01-11T11:19:54;-2.10;99.90
8643;DHT22;4359;49.358;11.256;2024-01-11T11:22:19;-2.10;99.90
8643;DHT22;4359;49.358;11.256;2024-01-11T11:24:45;-2.00;99.90
8643;DHT22;4359;49.358;11.256;2024-01-11T11:27:14;-1.90;99.90
8643;DHT22;4359;49.358;11.256;2024-01-11T11:29:41;-1.90;99.90
8643;DHT22;4359;49.358;11.256;2024-01-11T11:32:07;-1.80;99.90
8643;DHT22;4359;49.358;11.256;2024-01-11T11:34:42;-1.60;99.90
8643;DHT22;4359;49.358;11.256;2024-01-11T11:37:09;-1.60;99.90
8643;DHT22;4359;49.358;11.256;2024-01-11T11:39:35;-1.50;99.90
8643;DHT22;4359;49.358;11.256;2024-01-11T11:42:01;-1.40;99.90
8643;DHT22;4359;49.358;11.256;2024-01-11T11:44:26;-1.20;99.90
8643;DHT22;4359;49.358;11.256;2024-01-11T11:46:52;-1.10;99.90
8643;DHT22;4359;49.358;11.256;2024-01-11T11:49:18;-1.00;99.90
8643;DHT22;4359;49.358;11.256;2024-01-11T11:51:44;-0.90;99.90
8643;DHT22;4359;49.358;11.256;2024-01-11T11:54:09;-0.90;99.90
8643;DHT22;4359;49.358;11.256;2024-01-11T11:56:35;-0.80;99.90
8643;DHT22;4359;49.358;11.256;2024-01-11T11:59:02;-0.70;99.90
8643;DHT22;4359;49.358;11.256;2024-01-11T12:01:28;-0.50;99.90
8643;DHT22;4359;49.358;11.256;2024-01-11T12:03:53;-0.30;99.90
8643;DHT22;4359;49.358;11.256;2024-01-11T12:06:20;-0.10;99.90
8643;DHT22;4359;49.358;11.256;2024-01-11T12:08:46;0.20;99.90
8643;DHT22;4359;49.358;11.256;2024-01-11T12:11:13;0.40;99.90
8643;DHT22;4359;49.358;11.256;2024-01-11T12:13:39;0.50;99.90
8643;DHT22;4359;49.358;11.256;2024-01-11T12:16:05;0.80;99.90
8643;DHT22;4359;49.358;11.256;2024-01-11T12:18:30;1.00;99.90
8643;DHT22;4359;49.358;11.256;2024-01-11T12:20:56;1.20;99.90
8643;DHT22;4359;49.358;11.256;2024-01-11T12:23:21;1.20;99.90
8643;DHT22;4359;49.358;11.256;2024-01-11T12:25:47;1.00;99.90
8643;DHT22;4359;49.358;11.256;2024-01-11T12:28:13;1.20;99.90
8643;DHT22;4359;49.358;11.256;2024-01-11T12:30:38;1.40;99.90
8643;DHT22;4359;49.358;11.256;2024-01-11T12:33:04;1.90;99.90
8643;DHT22;4359;49.358;11.256;2024-01-11T12:35:30;2.30;99.90
8643;DHT22;4359;49.358;11.256;2024-01-11T12:38:01;2.60;99.90
8643;DHT22;4359;49.358;11.256;2024-01-11T12:40:31;2.70;99.90
8643;DHT22;4359;49.358;11.256;2024-01-11T12:42:57;2.30;99.90
8643;DHT22;4359;49.358;11.256;2024-01-11T12:45:23;2.20;99.90
8643;DHT22;4359;49.358;11.256;2024-01-11T12:47:51;2.10;99.90
8643;DHT22;4359;49.358;11.256;2024-01-11T12:50:16;2.30;99.90
8643;DHT22;4359;49.358;11.256;2024-01-11T12:52:42;2.20;99.90
8643;DHT22;4359;49.358;11.256;2024-01-11T12:55:13;1.80;99.90
8643;DHT22;4359;49.358;11.256;2024-01-11T12:57:43;1.60;99.90
8643;DHT22;4359;49.358;11.256;2024-01-11T13:00:09;1.70;99.90
8643;DHT22;4359;49.358;11.256;2024-01-11T13:02:35;1.90;99.90
8643;DHT22;4359;49.358;11.256;2024-01-11T13:05:01;2.20;99.90
8643;DHT22;4359;49.358;11.256;2024-01-11T13:07:28;2.30;99.90
8643;DHT22;4359;49.358;11.256;2024-01-11T13:09:53;2.20;99.90
8643;DHT22;4359;49.358;11.256;2024-01-11T13:12:19;1.90;99.90
8643;DHT22;4359;49.358;11.256;2024-01-11T13:14:46;1.80;99.90
8643;DHT22;4359;49.358;11.256;2024-01-11T13:17:12;1.90;99.90
8643;DHT22;4359;49.358;11.256;2024-01-11T13:19:38;1.90;99.90
8643;DHT22;4359;49.358;11.256;2024-01-11T13:22:04;1.80;99.90
8643;DHT22;4359;49.358;11.256;2024-01-11T13:24:30;1.90;99.90
8643;DHT22;4359;49.358;11.256;2024-01-11T13:26:55;2.00;99.90
8643;DHT22;4359;49.358;11.256;2024-01-11T13:29:21;1.90;99.90
8643;DHT22;4359;49.358;11.256;2024-01-11T13:31:46;1.80;99.90
8643;DHT22;4359;49.358;11.256;2024-01-11T13:34:12;1.80;99.90
8643;DHT22;4359;49.358;11.256;2024-01-11T13:36:37;1.80;99.90
8643;DHT22;4359;49.358;11.256;2024-01-11T13:39:03;1.70;99.90
8643;DHT22;4359;49.358;11.256;2024-01-11T13:41:28;1.50;99.90
8643;DHT22;4359;49.358;11.256;2024-01-11T13:43:54;1.40;99.90
8643;DHT22;4359;49.358;11.256;2024-01-11T13:46:19;1.30;99.90
8643;DHT22;4359;49.358;11.256;2024-01-11T13:48:45;1.20;99.90
8643;DHT22;4359;49.358;11.256;2024-01-11T13:51:11;1.20;99.90
8643;DHT22;4359;49.358;11.256;2024-01-11T13:53:38;1.20;99.90
8643;DHT22;4359;49.358;11.256;2024-01-11T13:56:04;1.40;99.90
8643;DHT22;4359;49.358;11.256;2024-01-11T13:58:29;1.30;99.90
8643;DHT22;4359;49.358;11.256;2024-01-11T14:00:55;1.30;99.90
8643;DHT22;4359;49.358;11.256;2024-01-11T14:03:21;1.40;99.90
8643;DHT22;4359;49.358;11.256;2024-01-11T14:05:46;1.50;99.90
8643;DHT22;4359;49.358;11.256;2024-01-11T14:08:12;1.60;99.90
8643;DHT22;4359;49.358;11.256;2024-01-11T14:10:38;1.60;99.90
8643;DHT22;4359;49.358;11.256;2024-01-11T14:13:03;1.40;99.90
8643;DHT22;4359;49.358;11.256;2024-01-11T14:15:29;1.30;99.90
8643;DHT22;4359;49.358;11.256;2024-01-11T14:17:54;1.20;99.90
8643;DHT22;4359;49.358;11.256;2024-01-11T14:21:19;0.90;99.90
8643;DHT22;4359;49.358;11.256;2024-01-11T14:23:45;0.80;99.90
8643;DHT22;4359;49.358;11.256;2024-01-11T14:26:11;0.80;99.90
8643;DHT22;4359;49.358;11.256;2024-01-11T14:28:36;0.40;99.90
8643;DHT22;4359;49.358;11.256;2024-01-11T14:31:07;0.30;99.90
8643;DHT22;4359;49.358;11.256;2024-01-11T14:33:33;0.20;99.90
8643;DHT22;4359;49.358;11.256;2024-01-11T14:35:59;0.00;99.90
8643;DHT22;4359;49.358;11.256;2024-01-11T14:38:24;-0.10;99.90
8643;DHT22;4359;49.358;11.256;2024-01-11T14:40:50;-0.10;99.90
8643;DHT22;4359;49.358;11.256;2024-01-11T14:43:15;-0.10;99.90
8643;DHT22;4359;49.358;11.256;2024-01-11T14:45:41;-0.10;99.90
8643;DHT22;4359;49.358;11.256;2024-01-11T14:48:08;-0.10;99.90
8643;DHT22;4359;49.358;11.256;2024-01-11T14:50:33;-0.30;99.90
8643;DHT22;4359;49.358;11.256;2024-01-11T14:52:59;-0.30;99.90
8643;DHT22;4359;49.358;11.256;2024-01-11T14:55:24;-0.30;99.90
8643;DHT22;4359;49.358;11.256;2024-01-11T14:57:50;-0.40;99.90
8643;DHT22;4359;49.358;11.256;2024-01-11T15:00:16;-0.50;99.90
8643;DHT22;4359;49.358;11.256;2024-01-11T15:02:42;-0.60;99.90
8643;DHT22;4359;49.358;11.256;2024-01-11T15:05:10;-0.60;99.90
8643;DHT22;4359;49.358;11.256;2024-01-11T15:07:35;-0.70;99.90
8643;DHT22;4359;49.358;11.256;2024-01-11T15:10:01;-0.80;99.90
8643;DHT22;4359;49.358;11.256;2024-01-11T15:12:26;-0.90;99.90
8643;DHT22;4359;49.358;11.256;2024-01-11T15:14:52;-0.90;99.90
8643;DHT22;4359;49.358;11.256;2024-01-11T15:17:17;-1.00;99.90
8643;DHT22;4359;49.358;11.256;2024-01-11T15:19:44;-1.00;99.90
8643;DHT22;4359;49.358;11.256;2024-01-11T15:22:09;-1.20;99.90
8643;DHT22;4359;49.358;11.256;2024-01-11T15:24:37;-1.40;99.90
8643;DHT22;4359;49.358;11.256;2024-01-11T15:27:03;-1.40;99.90
8643;DHT22;4359;49.358;11.256;2024-01-11T15:29:29;-1.40;99.90
8643;DHT22;4359;49.358;11.256;2024-01-11T15:31:54;-1.60;99.90
8643;DHT22;4359;49.358;11.256;2024-01-11T15:34:20;-1.80;99.90